首页
METAR-TAF:

METAR-TAF

机场 :

多維爾, 法国

纬度: 49-21-55N, 经度: 000-09-16E, 海拔: 146米

当前天气观测

该预报发布于23分钟前的09:00 UTC
风速6节,风向南转南东,在东南南转西南之间变化
温度 31°C
湿度 38%
气压 1018 hPa
能见度10公里或以上
1500米以下无云,无积雨云

METAR: LFRG 080900Z AUTO 16006KT 130V200 CAVOK 31/15 Q1018 TEMPO 4000 TSRA BKN090CB

时间: 11:23 (09:23 UTC)

预报

该预报发布于1小时和23分钟前的08:00 UTC
预报有效从08日的 09点(UTC)到 08日的 18点(UTC)
风速5节,风向多变
能见度10公里或以上
1500米以下无云,无积雨云
几率 40% :
短暂存在
从 08日的 09点(UTC)到 08日的 18点(UTC)
多云层高于11000英尺, 积雨云.
阵雨
几率 30% :
短暂存在
从 08日的 09点(UTC)到 08日的 12点(UTC)
能見度: 4000
多云层高于9000英尺, 积雨云.
雷暴, 雨
几率 40% :
短暂存在
从 08日的 12点(UTC)到 08日的 18点(UTC)
能見度: 4000
多云层高于9000英尺, 积雨云.
雷暴, 雨

TAF: LFRG 080800Z 0809/0818 VRB05KT CAVOK PROB40 TEMPO 0809/0818 SHRA BKN110CB PROB30 TEMPO 0809/0812 4000 TSRA BKN090CB PROB40 TEMPO 0812/0818 4000 TSRA BKN090CB

超过4000个机场的气象观测和天气预报(METAR&TAF报告)。

可查询的气象台以黄色和红色小点在地图上表示。

将鼠标移到小点上方,可查看气象台名称。

然后点击查看天气观测和预报。

如需切换地图:点击带黑十字的绿色按钮放大地图;点击带横线的绿色按钮缩小地图;或者点击绿色箭头查看邻近地区的地图。


METAR-TAF: